Time;durP1;ratioP1;P1;durP2;ratioP2;P2;SDS_P1;SDS_P2;PMS_P1;PMS_P2;Temp;Humidity;BMP_temperature;BMP_pressure;BME280_temperature;BME280_humidity;BME280_pressure;Samples;Min_cycle;Max_cycle;Signal;HPM_P1;HPM_P2
2023/01/12 00:02:04;;;;;;;14.50;4.10;;;;;;;;;;5117787;28;20254;-72
2023/01/12 00:04:30;;;;;;;20.27;4.40;;;;;;;;;;5118149;28;20176;-72
2023/01/12 00:06:57;;;;;;;11.53;4.03;;;;;;;;;;5119848;28;20199;-72
2023/01/12 00:09:23;;;;;;;14.30;4.60;;;;;;;;;;5118711;28;20183;-73
2023/01/12 00:11:49;;;;;;;15.50;3.97;;;;;;;;;;5116581;28;20200;-71
2023/01/12 00:14:15;;;;;;;18.90;4.27;;;;;;;;;;5116363;28;20180;-74
2023/01/12 00:16:41;;;;;;;13.77;3.50;;;;;;;;;;5117995;28;20211;-73
2023/01/12 00:19:12;;;;;;;16.73;4.07;;;;;;;;;;5117636;28;20172;-72
2023/01/12 00:21:45;;;;;;;10.13;3.07;;;;;;;;;;5116379;28;20200;-73
2023/01/12 00:24:12;;;;;;;17.73;4.23;;;;;;;;;;5116399;28;20714;-73
2023/01/12 00:26:38;;;;;;;14.93;3.23;;;;;;;;;;5116095;28;20180;-73
2023/01/12 00:29:04;;;;;;;14.63;4.10;;;;;;;;;;5116049;28;20179;-73
2023/01/12 00:31:30;;;;;;;10.53;3.27;;;;;;;;;;5116050;28;20204;-73
2023/01/12 00:33:55;;;;;;;12.80;3.10;;;;;;;;;;5115908;28;20184;-73
2023/01/12 00:36:21;;;;;;;11.40;3.40;;;;;;;;;;5117121;28;20184;-73
2023/01/12 00:38:47;;;;;;;16.03;4.07;;;;;;;;;;5117152;28;20291;-72
2023/01/12 00:45:20;;;;;;;13.93;3.80;;;;;;;;;;5115887;28;20259;-72
2023/01/12 00:46:44;;;;;;;8.97;3.27;;;;;;;;;;5117198;28;20201;-73
2023/01/12 00:49:10;;;;;;;15.23;3.73;;;;;;;;;;5115650;28;20565;-72
2023/01/12 00:51:36;;;;;;;10.33;3.33;;;;;;;;;;5115523;28;20689;-72
2023/01/12 00:54:03;;;;;;;15.30;3.37;;;;;;;;;;5116705;28;20669;-72
2023/01/12 00:56:32;;;;;;;12.00;3.97;;;;;;;;;;5116976;28;20203;-73
2023/01/12 00:58:58;;;;;;;13.07;3.40;;;;;;;;;;5118298;28;20172;-72
2023/01/12 01:01:24;;;;;;;13.07;3.63;;;;;;;;;;5116029;28;20213;-72
2023/01/12 01:03:50;;;;;;;17.73;4.20;;;;;;;;;;5116673;28;20175;-70
2023/01/12 01:06:16;;;;;;;18.10;4.10;;;;;;;;;;5116378;28;20187;-72
2023/01/12 01:08:42;;;;;;;13.37;3.60;;;;;;;;;;5116604;28;20173;-73
2023/01/12 01:11:09;;;;;;;12.80;3.30;;;;;;;;;;5114935;28;20196;-72
2023/01/12 01:13:36;;;;;;;11.77;3.83;;;;;;;;;;5116450;28;20180;-71
2023/01/12 01:16:03;;;;;;;14.03;3.80;;;;;;;;;;5116371;28;20184;-72
2023/01/12 01:18:29;;;;;;;17.30;3.87;;;;;;;;;;5116215;28;20197;-72
2023/01/12 01:20:55;;;;;;;15.83;3.90;;;;;;;;;;5116285;28;20183;-72
2023/01/12 01:23:22;;;;;;;13.97;4.50;;;;;;;;;;5114773;28;20173;-73
2023/01/12 01:25:47;;;;;;;12.50;4.20;;;;;;;;;;5114851;28;20183;-72
2023/01/12 01:28:14;;;;;;;19.60;4.40;;;;;;;;;;5115927;28;20172;-72
2023/01/12 01:30:43;;;;;;;12.17;3.87;;;;;;;;;;5114666;28;20275;-72
2023/01/12 01:33:09;;;;;;;13.93;4.63;;;;;;;;;;5114633;28;20191;-72
2023/01/12 01:35:36;;;;;;;16.83;3.83;;;;;;;;;;5116208;28;20177;-72
2023/01/12 01:38:02;;;;;;;18.83;4.60;;;;;;;;;;5116946;28;20590;-73
2023/01/12 01:40:28;;;;;;;16.90;3.77;;;;;;;;;;5117378;28;20172;-72
2023/01/12 01:42:54;;;;;;;19.50;4.00;;;;;;;;;;5116736;28;20678;-72
2023/01/12 01:45:20;;;;;;;16.50;4.30;;;;;;;;;;5116086;28;20169;-74
2023/01/12 01:47:49;;;;;;;14.63;3.73;;;;;;;;;;5115758;28;20650;-73
2023/01/12 01:50:20;;;;;;;12.80;3.80;;;;;;;;;;5116356;28;20711;-72
2023/01/12 01:52:49;;;;;;;12.77;4.03;;;;;;;;;;5115694;28;20631;-72
2023/01/12 01:55:28;;;;;;;18.10;4.50;;;;;;;;;;5115524;28;20172;-73
2023/01/12 01:57:56;;;;;;;15.23;3.47;;;;;;;;;;5114073;28;20211;-73
2023/01/12 02:00:23;;;;;;;19.23;4.47;;;;;;;;;;5113982;28;20180;-72
2023/01/12 02:02:49;;;;;;;13.43;4.13;;;;;;;;;;5113959;28;20238;-72
2023/01/12 02:05:18;;;;;;;14.93;4.20;;;;;;;;;;5114011;28;20176;-72
2023/01/12 02:07:44;;;;;;;16.63;4.37;;;;;;;;;;5113830;28;20180;-73
2023/01/12 02:10:10;;;;;;;19.73;4.17;;;;;;;;;;5115284;28;20180;-72
2023/01/12 02:18:14;;;;;;;13.70;3.67;;;;;;;;;;5115620;28;20250;-72
2023/01/12 02:20:49;;;;;;;18.43;4.17;;;;;;;;;;5115635;28;20164;-72
2023/01/12 02:23:34;;;;;;;22.77;4.13;;;;;;;;;;5114018;28;20177;-73
2023/01/12 02:26:00;;;;;;;12.47;3.47;;;;;;;;;;5114998;28;20260;-72
2023/01/12 02:28:45;;;;;;;14.53;3.77;;;;;;;;;;5114926;28;20226;-72
2023/01/12 02:31:30;;;;;;;18.87;4.33;;;;;;;;;;5113690;28;20204;-73
2023/01/12 02:34:05;;;;;;;14.60;4.27;;;;;;;;;;5114781;28;20176;-73
2023/01/12 02:36:34;;;;;;;23.80;4.83;;;;;;;;;;5114568;28;20696;-72
2023/01/12 02:39:03;;;;;;;22.37;5.50;;;;;;;;;;5113430;28;20173;-73
2023/01/12 02:44:26;;;;;;;15.37;3.83;;;;;;;;;;5114995;28;20687;-72
2023/01/12 02:46:54;;;;;;;16.53;4.40;;;;;;;;;;5115078;28;20165;-72
2023/01/12 02:49:22;;;;;;;15.23;4.60;;;;;;;;;;5114335;28;20188;-72
2023/01/12 02:51:54;;;;;;;18.40;4.47;;;;;;;;;;5113000;28;20287;-72
2023/01/12 02:54:22;;;;;;;20.43;4.53;;;;;;;;;;5114263;28;20181;-72
2023/01/12 02:56:49;;;;;;;14.57;3.70;;;;;;;;;;5112872;28;20222;-73
2023/01/12 02:59:22;;;;;;;22.60;4.47;;;;;;;;;;5112992;28;20188;-73
2023/01/12 03:01:52;;;;;;;21.77;4.00;;;;;;;;;;5112712;28;20215;-72
2023/01/12 03:04:19;;;;;;;17.70;4.40;;;;;;;;;;5112842;28;20172;-72
2023/01/12 03:06:57;;;;;;;14.17;4.30;;;;;;;;;;5112826;28;20267;-73
2023/01/12 03:09:33;;;;;;;15.77;4.03;;;;;;;;;;5112949;28;20183;-73
2023/01/12 03:12:01;;;;;;;16.77;4.47;;;;;;;;;;5114063;28;20196;-72
2023/01/12 03:14:29;;;;;;;17.47;4.10;;;;;;;;;;5114274;28;20199;-72
2023/01/12 03:16:56;;;;;;;17.73;4.33;;;;;;;;;;5112547;28;20248;-73
2023/01/12 03:19:25;;;;;;;11.97;3.10;;;;;;;;;;5112610;28;20181;-72
2023/01/12 03:21:54;;;;;;;16.97;4.37;;;;;;;;;;5112659;28;20210;-72
2023/01/12 03:24:41;;;;;;;26.80;4.83;;;;;;;;;;5113597;28;20172;-73
2023/01/12 03:27:12;;;;;;;21.40;5.10;;;;;;;;;;5112993;28;20569;-72
2023/01/12 03:29:40;;;;;;;18.37;4.77;;;;;;;;;;5114260;28;20164;-72
2023/01/12 03:32:06;;;;;;;24.00;4.30;;;;;;;;;;5114140;28;20203;-72
2023/01/12 03:34:33;;;;;;;14.27;3.40;;;;;;;;;;5113774;28;20180;-72
2023/01/12 03:37:04;;;;;;;13.20;4.20;;;;;;;;;;5114387;28;20258;-71
2023/01/12 03:39:50;;;;;;;13.57;3.03;;;;;;;;;;5113720;28;20176;-72
2023/01/12 03:42:34;;;;;;;15.50;4.43;;;;;;;;;;5113804;28;20254;-72
2023/01/12 03:45:19;;;;;;;15.53;3.60;;;;;;;;;;5112493;28;20263;-72
2023/01/12 03:47:47;;;;;;;20.47;3.80;;;;;;;;;;5112376;28;20181;-73
2023/01/12 03:50:15;;;;;;;13.43;4.23;;;;;;;;;;5113503;28;20203;-72
2023/01/12 03:52:42;;;;;;;15.40;4.27;;;;;;;;;;5113594;28;20672;-73
2023/01/12 03:55:12;;;;;;;18.07;4.43;;;;;;;;;;5112189;28;20267;-72
2023/01/12 03:57:39;;;;;;;13.50;4.00;;;;;;;;;;5112186;28;20563;-73
2023/01/12 04:00:06;;;;;;;18.80;3.93;;;;;;;;;;5112811;28;20666;-73
2023/01/12 04:02:33;;;;;;;13.90;4.10;;;;;;;;;;5113979;28;20204;-73
2023/01/12 04:04:59;;;;;;;13.43;3.30;;;;;;;;;;5112797;28;20200;-73
2023/01/12 04:07:25;;;;;;;13.87;3.30;;;;;;;;;;5112688;28;20676;-73
2023/01/12 04:09:51;;;;;;;18.33;4.23;;;;;;;;;;5112747;28;20571;-73
2023/01/12 04:12:17;;;;;;;15.23;3.20;;;;;;;;;;5113696;28;20196;-73
2023/01/12 04:14:44;;;;;;;13.60;3.40;;;;;;;;;;5112418;28;20187;-72
2023/01/12 04:17:12;;;;;;;15.73;3.53;;;;;;;;;;5113513;28;20200;-73
2023/01/12 04:19:38;;;;;;;11.60;3.83;;;;;;;;;;5113645;28;20668;-73
2023/01/12 04:24:49;;;;;;;13.60;3.20;;;;;;;;;;5114963;28;20676;-73
2023/01/12 04:27:15;;;;;;;18.97;3.97;;;;;;;;;;5113323;28;20176;-73
2023/01/12 04:29:42;;;;;;;10.13;2.67;;;;;;;;;;5113649;28;20193;-73
2023/01/12 04:32:08;;;;;;;13.17;3.93;;;;;;;;;;5113136;28;20200;-73
2023/01/12 04:34:34;;;;;;;13.23;3.77;;;;;;;;;;5112125;28;20668;-73
2023/01/12 04:37:00;;;;;;;10.27;3.43;;;;;;;;;;5114142;28;20200;-72
2023/01/12 04:39:26;;;;;;;10.33;2.70;;;;;;;;;;5118861;28;20199;-72
2023/01/12 04:41:52;;;;;;;11.87;3.67;;;;;;;;;;5117038;28;20192;-73
2023/01/12 04:44:19;;;;;;;11.73;3.30;;;;;;;;;;5115528;28;20642;-72
2023/01/12 04:46:45;;;;;;;10.83;2.93;;;;;;;;;;5115494;28;20275;-72
2023/01/12 04:49:11;;;;;;;13.27;3.50;;;;;;;;;;5117251;28;20212;-72
2023/01/12 04:51:37;;;;;;;17.27;3.20;;;;;;;;;;5116733;28;20233;-72
2023/01/12 04:54:03;;;;;;;15.67;3.63;;;;;;;;;;5115350;28;20267;-72
2023/01/12 04:56:30;;;;;;;12.77;4.47;;;;;;;;;;5116566;28;20646;-72
2023/01/12 04:58:58;;;;;;;13.33;3.10;;;;;;;;;;5116744;28;20195;-72
2023/01/12 05:01:25;;;;;;;11.93;2.80;;;;;;;;;;5116214;28;20215;-72
2023/01/12 05:03:53;;;;;;;7.20;2.30;;;;;;;;;;5115149;28;20204;-72
2023/01/12 05:06:19;;;;;;;16.17;3.33;;;;;;;;;;5116830;28;20173;-72
2023/01/12 05:11:29;;;;;;;14.60;3.40;;;;;;;;;;5116984;28;20625;-72
2023/01/12 05:13:56;;;;;;;10.63;2.70;;;;;;;;;;5117482;28;20173;-73
2023/01/12 05:16:23;;;;;;;12.17;2.97;;;;;;;;;;5117518;28;20204;-72
2023/01/12 05:18:49;;;;;;;11.50;3.00;;;;;;;;;;5115208;28;20215;-72
2023/01/12 05:21:16;;;;;;;14.40;3.50;;;;;;;;;;5114691;28;20204;-72
2023/01/12 05:23:43;;;;;;;8.33;2.90;;;;;;;;;;5116350;28;20168;-72
2023/01/12 05:26:09;;;;;;;10.03;2.70;;;;;;;;;;5116272;28;20183;-73
2023/01/12 05:28:35;;;;;;;10.77;3.00;;;;;;;;;;5116249;28;20638;-72
2023/01/12 05:31:02;;;;;;;9.23;3.33;;;;;;;;;;5116223;28;20260;-72
2023/01/12 05:33:28;;;;;;;12.37;3.33;;;;;;;;;;5116606;28;20179;-72
2023/01/12 05:35:54;;;;;;;11.43;3.17;;;;;;;;;;5116227;28;20176;-71
2023/01/12 05:38:20;;;;;;;13.53;2.70;;;;;;;;;;5115763;28;20204;-72
2023/01/12 05:40:46;;;;;;;9.40;2.13;;;;;;;;;;5116027;28;20172;-72
2023/01/12 05:46:02;;;;;;;13.20;2.93;;;;;;;;;;5116382;28;20171;-71
2023/01/12 05:48:28;;;;;;;11.87;3.10;;;;;;;;;;5115618;28;20248;-71
2023/01/12 05:50:54;;;;;;;9.87;3.10;;;;;;;;;;5115710;28;20208;-72
2023/01/12 05:53:20;;;;;;;6.93;2.40;;;;;;;;;;5116008;28;20185;-71
2023/01/12 05:55:45;;;;;;;7.90;2.27;;;;;;;;;;5115556;28;20183;-71
2023/01/12 05:58:11;;;;;;;12.53;3.50;;;;;;;;;;5115479;28;20586;-73
2023/01/12 06:00:37;;;;;;;10.67;3.00;;;;;;;;;;5115533;28;20575;-71
2023/01/12 06:03:03;;;;;;;11.77;2.73;;;;;;;;;;5113843;28;20691;-71
2023/01/12 06:05:29;;;;;;;9.17;2.80;;;;;;;;;;5115183;28;20642;-72
2023/01/12 06:07:55;;;;;;;13.20;2.97;;;;;;;;;;5115800;28;20184;-71
2023/01/12 06:10:21;;;;;;;10.23;2.90;;;;;;;;;;5115689;28;20177;-71
2023/01/12 06:15:33;;;;;;;10.93;2.90;;;;;;;;;;5115950;28;20172;-71
2023/01/12 06:17:59;;;;;;;9.87;2.73;;;;;;;;;;5115486;28;20204;-71
2023/01/12 06:20:25;;;;;;;11.40;2.53;;;;;;;;;;5113635;28;20275;-72
2023/01/12 06:22:51;;;;;;;13.43;3.43;;;;;;;;;;5113752;28;20204;-71
2023/01/12 06:25:17;;;;;;;11.23;3.10;;;;;;;;;;5113850;28;20180;-70
2023/01/12 06:27:43;;;;;;;9.47;2.80;;;;;;;;;;5114929;28;20181;-71
2023/01/12 06:30:09;;;;;;;13.93;3.60;;;;;;;;;;5114886;28;20173;-72
2023/01/12 06:32:35;;;;;;;8.47;2.77;;;;;;;;;;5114904;28;20204;-70
2023/01/12 06:35:02;;;;;;;11.73;2.60;;;;;;;;;;5114911;28;20190;-70
2023/01/12 06:37:29;;;;;;;14.83;3.43;;;;;;;;;;5115193;28;20568;-71
2023/01/12 06:39:55;;;;;;;12.07;2.90;;;;;;;;;;5114758;28;20180;-71
2023/01/12 06:42:27;;;;;;;6.90;2.50;;;;;;;;;;5113394;28;20211;-71
2023/01/12 06:44:53;;;;;;;15.17;3.50;;;;;;;;;;5114653;28;20163;-71
2023/01/12 06:47:19;;;;;;;7.40;2.67;;;;;;;;;;5114690;28;20203;-71
2023/01/12 06:49:45;;;;;;;9.37;2.73;;;;;;;;;;5115003;28;20263;-72
2023/01/12 06:52:11;;;;;;;9.00;2.67;;;;;;;;;;5114773;28;20720;-71
2023/01/12 06:54:37;;;;;;;11.57;2.60;;;;;;;;;;5114425;28;20199;-72
2023/01/12 06:57:03;;;;;;;10.70;3.63;;;;;;;;;;5116148;28;20229;-71
2023/01/12 06:59:29;;;;;;;13.10;2.80;;;;;;;;;;5113906;28;20222;-71
2023/01/12 07:01:55;;;;;;;11.53;3.17;;;;;;;;;;5112674;28;20246;-71
2023/01/12 07:04:21;;;;;;;12.03;3.60;;;;;;;;;;5114402;28;20179;-72
2023/01/12 07:06:47;;;;;;;11.33;2.67;;;;;;;;;;5114318;28;20176;-71
2023/01/12 07:09:13;;;;;;;10.43;2.90;;;;;;;;;;5114667;28;20724;-71
2023/01/12 07:11:39;;;;;;;10.67;2.80;;;;;;;;;;5114145;28;20232;-71
2023/01/12 07:14:05;;;;;;;10.83;2.70;;;;;;;;;;5112903;28;20191;-72
2023/01/12 07:16:32;;;;;;;9.13;2.73;;;;;;;;;;5114875;28;20594;-71
2023/01/12 07:18:58;;;;;;;11.73;2.90;;;;;;;;;;5113031;28;20553;-71
2023/01/12 07:21:24;;;;;;;10.20;3.33;;;;;;;;;;5114068;28;20196;-71
2023/01/12 07:23:50;;;;;;;15.07;3.10;;;;;;;;;;5113983;28;20173;-71
2023/01/12 07:26:16;;;;;;;8.27;3.17;;;;;;;;;;5112595;28;20189;-71
2023/01/12 07:28:42;;;;;;;8.40;2.30;;;;;;;;;;5112529;28;20599;-71
2023/01/12 07:31:09;;;;;;;12.10;2.83;;;;;;;;;;5113858;28;20230;-71
2023/01/12 07:33:36;;;;;;;8.80;2.73;;;;;;;;;;5114126;28;20255;-71
2023/01/12 07:36:03;;;;;;;12.73;3.20;;;;;;;;;;5114188;28;20172;-71
2023/01/12 07:38:29;;;;;;;9.17;2.67;;;;;;;;;;5113601;28;20203;-72
2023/01/12 07:40:59;;;;;;;10.87;2.80;;;;;;;;;;5112501;28;20225;-71
2023/01/12 07:43:25;;;;;;;4.57;1.97;;;;;;;;;;5112334;28;20226;-71
2023/01/12 07:45:52;;;;;;;10.37;2.70;;;;;;;;;;5112446;28;20721;-70
2023/01/12 07:48:20;;;;;;;12.93;2.63;;;;;;;;;;5115054;28;20169;-71
2023/01/12 07:50:46;;;;;;;9.50;2.50;;;;;;;;;;5114048;28;20184;-70
2023/01/12 07:53:11;;;;;;;9.93;2.10;;;;;;;;;;5114035;28;20200;-71
2023/01/12 07:55:38;;;;;;;13.83;2.83;;;;;;;;;;5114225;28;20204;-71
2023/01/12 07:58:07;;;;;;;6.40;2.20;;;;;;;;;;5112451;28;20204;-71
2023/01/12 08:00:33;;;;;;;9.27;2.50;;;;;;;;;;5112438;28;20562;-71
2023/01/12 08:03:10;;;;;;;11.67;2.97;;;;;;;;;;5113368;28;20216;-72
2023/01/12 08:05:37;;;;;;;9.47;2.20;;;;;;;;;;5113724;28;20249;-71
2023/01/12 08:08:03;;;;;;;8.37;2.60;;;;;;;;;;5113663;28;20172;-71
2023/01/12 08:10:29;;;;;;;12.00;3.23;;;;;;;;;;5115628;28;20204;-71
2023/01/12 08:12:55;;;;;;;4.90;2.50;;;;;;;;;;5117408;28;20568;-71
2023/01/12 08:15:22;;;;;;;6.43;2.50;;;;;;;;;;5117370;28;20180;-71
2023/01/12 08:17:54;;;;;;;8.67;3.30;;;;;;;;;;5115900;28;20673;-71
2023/01/12 08:20:25;;;;;;;7.27;2.67;;;;;;;;;;5117433;28;20198;-71
2023/01/12 08:22:52;;;;;;;7.73;2.67;;;;;;;;;;5117104;28;20729;-70
2023/01/12 08:25:21;;;;;;;8.43;2.60;;;;;;;;;;5117204;28;20177;-71
2023/01/12 08:27:49;;;;;;;5.10;2.03;;;;;;;;;;5116011;28;20176;-72
2023/01/12 08:30:16;;;;;;;8.70;3.00;;;;;;;;;;5117185;28;20180;-73
2023/01/12 08:32:42;;;;;;;8.27;2.90;;;;;;;;;;5117559;28;20323;-71
2023/01/12 08:35:08;;;;;;;6.87;2.50;;;;;;;;;;5115834;28;20282;-71
2023/01/12 08:37:36;;;;;;;5.73;2.07;;;;;;;;;;5116869;28;20210;-71
2023/01/12 08:40:03;;;;;;;9.43;4.20;;;;;;;;;;5117588;28;20318;-71
2023/01/12 08:42:29;;;;;;;5.27;1.90;;;;;;;;;;5117107;28;20192;-71
2023/01/12 08:44:55;;;;;;;3.73;2.13;;;;;;;;;;5117030;28;20172;-70
2023/01/12 08:47:25;;;;;;;5.07;2.43;;;;;;;;;;5117282;28;20172;-73
2023/01/12 08:49:51;;;;;;;7.20;2.50;;;;;;;;;;5116452;28;20218;-70
2023/01/12 08:52:17;;;;;;;5.20;1.90;;;;;;;;;;5117004;28;20678;-71
2023/01/12 08:54:43;;;;;;;7.23;2.53;;;;;;;;;;5117008;28;20198;-71
2023/01/12 08:57:09;;;;;;;4.40;2.10;;;;;;;;;;5115432;28;20561;-70
2023/01/12 08:59:35;;;;;;;4.47;2.30;;;;;;;;;;5117009;28;20180;-70
2023/01/12 09:02:02;;;;;;;4.70;2.30;;;;;;;;;;5116449;28;20208;-71
2023/01/12 09:04:28;;;;;;;22.57;13.03;;;;;;;;;;5117276;28;20188;-72
2023/01/12 09:06:54;;;;;;;10.57;6.90;;;;;;;;;;5115206;28;20184;-71
2023/01/12 09:09:21;;;;;;;10.47;5.63;;;;;;;;;;5116864;28;20273;-71
2023/01/12 09:11:48;;;;;;;6.37;2.70;;;;;;;;;;5116515;28;20730;-71
2023/01/12 09:14:14;;;;;;;6.00;2.33;;;;;;;;;;5116377;28;20201;-71
2023/01/12 09:16:41;;;;;;;7.93;2.97;;;;;;;;;;5114950;28;20181;-71
2023/01/12 09:19:07;;;;;;;6.97;1.97;;;;;;;;;;5116446;28;20679;-70
2023/01/12 09:21:36;;;;;;;4.60;2.00;;;;;;;;;;5114180;28;20201;-71
2023/01/12 09:24:01;;;;;;;5.87;2.03;;;;;;;;;;5116471;28;20176;-70
2023/01/12 09:26:30;;;;;;;5.33;1.90;;;;;;;;;;5114959;28;20645;-71
2023/01/12 09:28:59;;;;;;;3.23;1.80;;;;;;;;;;5116466;27;20638;-70
2023/01/12 09:31:26;;;;;;;5.13;1.80;;;;;;;;;;5120910;28;20640;-73
2023/01/12 09:33:53;;;;;;;6.10;2.07;;;;;;;;;;5116381;28;20641;-72
2023/01/12 09:36:23;;;;;;;4.77;2.03;;;;;;;;;;5116041;28;20183;-71
2023/01/12 09:38:50;;;;;;;5.20;1.93;;;;;;;;;;5115997;28;20203;-71
2023/01/12 09:47:21;;;;;;;17.50;11.43;;;;;;;;;;5115834;28;20551;-71
2023/01/12 09:49:49;;;;;;;12.53;6.03;;;;;;;;;;5115751;28;20173;-71
2023/01/12 09:52:21;;;;;;;7.30;4.03;;;;;;;;;;5114143;28;20200;-70
2023/01/12 09:54:48;;;;;;;5.83;4.33;;;;;;;;;;5115518;28;20187;-71
2023/01/12 09:57:21;;;;;;;5.70;2.93;;;;;;;;;;5114171;28;20237;-70
2023/01/12 09:59:47;;;;;;;4.87;2.10;;;;;;;;;;5115608;28;20172;-70
2023/01/12 10:02:13;;;;;;;4.23;2.13;;;;;;;;;;5115267;28;20825;-71
2023/01/12 10:04:39;;;;;;;5.87;2.03;;;;;;;;;;5113924;28;20676;-71
2023/01/12 10:07:05;;;;;;;3.83;1.90;;;;;;;;;;5115168;28;20554;-70
2023/01/12 10:09:33;;;;;;;4.33;2.20;;;;;;;;;;5115172;28;20593;-71
2023/01/12 10:12:02;;;;;;;3.27;1.80;;;;;;;;;;5115108;28;20285;-70
2023/01/12 10:14:34;;;;;;;4.47;2.50;;;;;;;;;;5115088;28;20184;-70
2023/01/12 10:17:00;;;;;;;4.80;3.30;;;;;;;;;;5113606;28;20204;-70
2023/01/12 10:19:29;;;;;;;6.77;2.40;;;;;;;;;;5115322;28;20542;-70
2023/01/12 10:21:56;;;;;;;4.30;2.07;;;;;;;;;;5114015;28;20575;-70
2023/01/12 10:24:23;;;;;;;3.17;2.13;;;;;;;;;;5117771;28;20180;-70
2023/01/12 10:27:09;;;;;;;5.10;2.10;;;;;;;;;;5115285;28;20177;-70
2023/01/12 10:29:35;;;;;;;4.90;1.70;;;;;;;;;;5113251;28;20187;-70
2023/01/12 10:32:01;;;;;;;5.77;2.43;;;;;;;;;;5114861;28;20197;-70
2023/01/12 10:34:29;;;;;;;4.60;1.80;;;;;;;;;;5113916;28;20172;-70
2023/01/12 10:36:59;;;;;;;4.90;2.30;;;;;;;;;;5114573;28;20204;-70
2023/01/12 10:39:38;;;;;;;5.33;2.13;;;;;;;;;;5115293;28;20157;-70
2023/01/12 10:45:15;;;;;;;7.37;2.90;;;;;;;;;;5114495;28;20171;-70
2023/01/12 10:47:41;;;;;;;6.50;1.70;;;;;;;;;;5114452;28;20227;-69
2023/01/12 10:50:22;;;;;;;3.10;1.97;;;;;;;;;;5114411;28;20208;-70
2023/01/12 10:52:53;;;;;;;5.67;2.20;;;;;;;;;;5114627;28;20212;-70
2023/01/12 10:55:19;;;;;;;4.63;1.97;;;;;;;;;;5113526;28;20544;-70
2023/01/12 10:57:47;;;;;;;5.83;1.80;;;;;;;;;;5114307;28;20582;-71
2023/01/12 11:00:23;;;;;;;2.53;1.70;;;;;;;;;;5114568;28;20179;-70
2023/01/12 11:02:49;;;;;;;4.43;1.80;;;;;;;;;;5113991;28;20680;-70
2023/01/12 11:05:29;;;;;;;4.20;2.13;;;;;;;;;;5114272;28;20173;-70
2023/01/12 11:07:55;;;;;;;4.70;2.03;;;;;;;;;;5112688;28;20271;-70
2023/01/12 11:10:27;;;;;;;3.13;1.67;;;;;;;;;;5114272;28;20634;-70
2023/01/12 11:13:02;;;;;;;6.30;2.50;;;;;;;;;;5114264;28;20201;-70
2023/01/12 11:15:29;;;;;;;4.23;2.40;;;;;;;;;;5115863;28;20527;-70
2023/01/12 11:18:13;;;;;;;4.47;2.03;;;;;;;;;;5114040;28;20252;-69
2023/01/12 11:20:47;;;;;;;2.97;1.77;;;;;;;;;;5112840;28;20183;-70
2023/01/12 11:23:16;;;;;;;3.10;2.10;;;;;;;;;;5112885;28;20583;-70
2023/01/12 11:25:44;;;;;;;3.90;1.77;;;;;;;;;;5112680;28;20223;-70
2023/01/12 11:28:13;;;;;;;3.73;1.60;;;;;;;;;;5113894;28;20180;-70
2023/01/12 11:30:43;;;;;;;3.30;1.60;;;;;;;;;;5114136;28;20172;-70
2023/01/12 11:33:12;;;;;;;4.03;1.93;;;;;;;;;;5114029;28;20200;-70
2023/01/12 11:35:51;;;;;;;4.80;1.90;;;;;;;;;;5113805;28;20179;-70
2023/01/12 11:38:20;;;;;;;5.67;1.90;;;;;;;;;;5113857;28;20736;-69
2023/01/12 11:40:47;;;;;;;4.00;1.83;;;;;;;;;;5113899;28;20645;-70
2023/01/12 11:46:12;;;;;;;3.70;1.60;;;;;;;;;;5116632;28;20167;-70
2023/01/12 11:48:42;;;;;;;1.97;1.30;;;;;;;;;;5118139;28;20540;-70
2023/01/12 11:51:10;;;;;;;6.93;2.07;;;;;;;;;;5118122;28;20271;-70
2023/01/12 11:53:35;;;;;;;3.47;1.77;;;;;;;;;;5116569;28;20267;-69
2023/01/12 11:56:14;;;;;;;5.10;1.90;;;;;;;;;;5117615;28;20310;-70
2023/01/12 11:59:03;;;;;;;4.73;1.80;;;;;;;;;;5117885;28;20192;-70
2023/01/12 12:01:47;;;;;;;3.20;1.80;;;;;;;;;;5118030;28;20656;-69
2023/01/12 12:04:33;;;;;;;4.43;2.13;;;;;;;;;;5117636;28;20180;-69
2023/01/12 12:07:02;;;;;;;5.63;1.90;;;;;;;;;;5119872;28;20197;-69
2023/01/12 12:09:52;;;;;;;3.53;2.23;;;;;;;;;;5116919;28;20642;-69
2023/01/12 12:12:34;;;;;;;1.63;1.50;;;;;;;;;;5116472;28;20203;-70
2023/01/12 12:15:20;;;;;;;3.53;2.17;;;;;;;;;;5116352;28;20211;-69
2023/01/12 12:17:56;;;;;;;4.90;2.10;;;;;;;;;;5117383;28;20188;-69
2023/01/12 12:20:42;;;;;;;4.77;1.83;;;;;;;;;;5117845;28;20251;-70
2023/01/12 12:23:21;;;;;;;4.30;1.83;;;;;;;;;;5115932;28;20200;-69
2023/01/12 12:25:55;;;;;;;7.63;4.13;;;;;;;;;;5115949;28;20168;-69
2023/01/12 12:28:27;;;;;;;7.43;3.77;;;;;;;;;;5116087;28;20254;-69
2023/01/12 12:31:12;;;;;;;6.63;3.27;;;;;;;;;;5115966;28;20184;-69
2023/01/12 12:33:54;;;;;;;4.93;2.30;;;;;;;;;;5117586;28;20169;-69
2023/01/12 12:36:26;;;;;;;7.20;3.00;;;;;;;;;;5116998;28;20192;-69
2023/01/12 12:38:52;;;;;;;4.07;1.97;;;;;;;;;;5115851;28;20803;-69
2023/01/12 12:47:35;;;;;;;5.03;2.30;;;;;;;;;;5140961;22;20324;-72
2023/01/12 12:50:03;;;;;;;3.97;2.20;;;;;;;;;;5117183;28;20160;-72
2023/01/12 12:52:33;;;;;;;4.27;1.80;;;;;;;;;;5116886;28;20173;-72
2023/01/12 12:54:59;;;;;;;6.37;1.93;;;;;;;;;;5115550;28;20197;-73
2023/01/12 12:57:25;;;;;;;8.17;1.83;;;;;;;;;;5115406;28;20203;-72
2023/01/12 12:59:52;;;;;;;4.10;1.77;;;;;;;;;;5115966;28;20176;-71
2023/01/12 13:02:39;;;;;;;4.23;1.60;;;;;;;;;;5117999;28;20169;-71
2023/01/12 13:05:06;;;;;;;3.53;2.10;;;;;;;;;;5116105;28;20670;-74
2023/01/12 13:07:37;;;;;;;13.17;9.60;;;;;;;;;;5117624;28;20196;-71
2023/01/12 13:10:15;;;;;;;4.77;2.10;;;;;;;;;;5116783;28;20177;-74
2023/01/12 13:12:41;;;;;;;13.73;8.53;;;;;;;;;;5116839;28;20160;-70
2023/01/12 13:15:19;;;;;;;10.17;4.70;;;;;;;;;;5116034;28;20296;-72
2023/01/12 13:17:46;;;;;;;3.83;2.83;;;;;;;;;;5116898;28;20569;-72
2023/01/12 13:20:12;;;;;;;4.90;2.73;;;;;;;;;;5115437;28;20199;-71
2023/01/12 13:22:41;;;;;;;4.23;3.17;;;;;;;;;;5115253;28;20649;-72
2023/01/12 13:25:19;;;;;;;3.50;3.07;;;;;;;;;;5115713;28;20206;-72
2023/01/12 13:27:51;;;;;;;3.53;1.63;;;;;;;;;;5114540;28;20579;-72
2023/01/12 13:30:22;;;;;;;4.77;1.60;;;;;;;;;;5116357;28;20173;-71
2023/01/12 13:32:59;;;;;;;3.40;1.97;;;;;;;;;;5116400;28;20226;-70
2023/01/12 13:35:26;;;;;;;2.90;1.90;;;;;;;;;;5116085;28;20164;-72
2023/01/12 13:38:01;;;;;;;4.60;3.07;;;;;;;;;;5114386;28;20662;-71
2023/01/12 13:40:28;;;;;;;5.30;2.50;;;;;;;;;;5116099;27;20156;-72
2023/01/12 13:43:15;;;;;;;2.43;2.17;;;;;;;;;;5115866;28;20179;-71
2023/01/12 13:45:49;;;;;;;6.20;3.03;;;;;;;;;;5115900;28;20161;-72
2023/01/12 13:48:16;;;;;;;3.00;2.50;;;;;;;;;;5115478;28;20176;-71
2023/01/12 13:50:46;;;;;;;5.57;3.00;;;;;;;;;;5117002;28;20172;-72
2023/01/12 13:53:23;;;;;;;4.73;2.70;;;;;;;;;;5117025;28;20263;-72
2023/01/12 13:56:15;;;;;;;4.40;2.10;;;;;;;;;;5130404;28;20180;-72
2023/01/12 13:58:43;;;;;;;5.33;1.90;;;;;;;;;;5128839;28;20221;-71
2023/01/12 14:01:22;;;;;;;7.70;4.53;;;;;;;;;;5131601;28;20271;-71
2023/01/12 14:04:06;;;;;;;5.67;2.80;;;;;;;;;;5118177;28;20585;-72
2023/01/12 14:06:51;;;;;;;6.67;3.40;;;;;;;;;;5115312;28;20201;-72
2023/01/12 14:09:39;;;;;;;4.97;2.70;;;;;;;;;;5115125;28;20178;-72
2023/01/12 14:12:28;;;;;;;4.33;2.13;;;;;;;;;;5113795;28;20198;-73
2023/01/12 14:17:48;;;;;;;4.50;1.80;;;;;;;;;;5114860;28;20206;-72
2023/01/12 14:20:19;;;;;;;2.53;1.63;;;;;;;;;;5115176;28;20572;-71
2023/01/12 14:22:45;;;;;;;2.03;1.60;;;;;;;;;;5113554;28;20557;-70
2023/01/12 14:25:15;;;;;;;3.90;1.77;;;;;;;;;;5115103;28;20180;-72
2023/01/12 14:27:52;;;;;;;2.97;2.17;;;;;;;;;;5114743;28;20238;-70
2023/01/12 14:30:18;;;;;;;9.10;4.43;;;;;;;;;;5113413;28;20536;-72
2023/01/12 14:32:45;;;;;;;5.10;2.23;;;;;;;;;;5114623;28;20626;-71
2023/01/12 14:35:15;;;;;;;5.77;3.43;;;;;;;;;;5113201;28;20185;-73
2023/01/12 14:37:42;;;;;;;3.80;2.60;;;;;;;;;;5114306;28;20200;-70
2023/01/12 14:40:31;;;;;;;2.53;2.30;;;;;;;;;;5114439;28;20173;-72
2023/01/12 14:48:57;;;;;;;4.40;3.07;;;;;;;;;;5101207;28;20279;-71
2023/01/12 14:51:22;;;;;;;18.27;12.70;;;;;;;;;;5113428;28;20172;-70
2023/01/12 14:53:55;;;;;;;12.13;7.60;;;;;;;;;;5113502;28;20237;-72
2023/01/12 14:56:23;;;;;;;3.87;3.30;;;;;;;;;;5113901;28;20547;-69
2023/01/12 14:58:49;;;;;;;2.27;1.90;;;;;;;;;;5116233;28;20598;-72
2023/01/12 15:01:35;;;;;;;6.60;4.70;;;;;;;;;;5115079;28;20173;-70
2023/01/12 15:04:02;;;;;;;15.17;11.97;;;;;;;;;;5114447;28;20171;-71
2023/01/12 15:06:28;;;;;;;4.03;3.73;;;;;;;;;;5112754;28;20224;-72
2023/01/12 15:08:55;;;;;;;4.03;1.90;;;;;;;;;;5113977;28;20183;-72
2023/01/12 15:11:29;;;;;;;8.47;5.53;;;;;;;;;;5112681;28;20211;-71
2023/01/12 15:13:56;;;;;;;10.60;6.43;;;;;;;;;;5114284;28;20177;-69
2023/01/12 15:27:26;;;;;;;3.23;2.33;;;;;;;;;;5114022;28;20214;-72
2023/01/12 15:29:54;;;;;;;5.20;3.73;;;;;;;;;;5113765;28;20176;-71
2023/01/12 15:32:21;;;;;;;16.33;13.17;;;;;;;;;;5112431;28;20187;-71
2023/01/12 15:34:47;;;;;;;8.40;6.13;;;;;;;;;;5112497;28;20172;-69
2023/01/12 15:37:17;;;;;;;5.20;3.50;;;;;;;;;;5113381;28;20668;-72
2023/01/12 15:39:43;;;;;;;7.37;4.47;;;;;;;;;;5112398;28;20176;-71
2023/01/12 15:42:17;;;;;;;2.43;1.80;;;;;;;;;;5112351;28;20212;-68
2023/01/12 15:44:48;;;;;;;4.30;2.90;;;;;;;;;;5114337;28;20231;-71
2023/01/12 15:47:15;;;;;;;5.03;1.80;;;;;;;;;;5113463;28;20227;-71
2023/01/12 15:49:41;;;;;;;6.53;4.83;;;;;;;;;;5113696;28;20172;-69